createdAt,value
2018-07-15T00:01:36.695Z,77.40
2018-07-15T00:11:23.107Z,78.00
2018-07-15T00:16:16.333Z,78.40
2018-07-15T00:21:09.590Z,78.60
2018-07-15T00:30:55.986Z,78.80
2018-07-15T00:35:49.173Z,79.30
2018-07-15T00:40:42.397Z,79.70
2018-07-15T00:45:35.681Z,80.30
2018-07-15T00:50:29.014Z,80.70
2018-07-15T00:55:22.336Z,81.30
2018-07-15T01:00:20.080Z,81.70
2018-07-15T01:10:06.718Z,82.70
2018-07-15T01:14:59.953Z,83.20
2018-07-15T01:19:53.211Z,83.90
2018-07-15T01:24:46.437Z,84.30
2018-07-15T01:29:39.639Z,84.90
2018-07-15T01:39:25.963Z,85.30
2018-07-15T01:44:19.228Z,85.80
2018-07-15T01:49:12.441Z,86.30
2018-07-15T01:58:58.925Z,86.70
2018-07-15T02:03:52.124Z,87.20
2018-07-15T02:08:45.345Z,87.60
2018-07-15T02:13:38.579Z,88.10
2018-07-15T02:18:31.909Z,88.60
2018-07-15T02:23:25.107Z,89.20
2018-07-15T02:28:18.316Z,89.60
2018-07-15T02:33:11.539Z,90.00
2018-07-15T02:38:04.809Z,90.00
2018-07-15T02:42:58.064Z,90.20
2018-07-15T02:47:53.869Z,90.40
2018-07-15T02:52:47.126Z,90.90
2018-07-15T02:57:40.436Z,91.00
2018-07-15T03:02:33.695Z,91.20
2018-07-15T03:07:26.954Z,91.30
2018-07-15T03:12:20.221Z,91.40
2018-07-15T03:17:13.489Z,91.40
2018-07-15T03:22:07.235Z,91.50
2018-07-15T03:27:00.483Z,91.70
2018-07-15T03:36:46.916Z,92.00
2018-07-15T03:41:40.165Z,92.30
2018-07-15T03:46:33.398Z,92.30
2018-07-15T03:51:26.597Z,92.30
2018-07-15T03:56:19.860Z,92.40
2018-07-15T04:01:13.095Z,92.40
2018-07-15T04:06:06.331Z,92.50
2018-07-15T04:10:59.544Z,92.60
2018-07-15T04:15:52.737Z,92.50
2018-07-15T04:25:39.131Z,92.40
2018-07-15T04:30:32.681Z,92.30
2018-07-15T04:35:25.947Z,92.10
2018-07-15T04:40:19.903Z,92.10
2018-07-15T04:45:13.117Z,91.90
2018-07-15T04:50:06.430Z,91.80
2018-07-15T04:54:59.653Z,91.40
2018-07-15T05:04:46.009Z,88.70
2018-07-15T05:09:39.265Z,79.40
2018-07-15T05:19:25.579Z,64.20
2018-07-15T05:24:18.803Z,58.20
2018-07-15T05:29:12.036Z,56.30
2018-07-15T05:34:05.269Z,53.50
2018-07-15T05:38:58.502Z,52.20
2018-07-15T05:48:44.901Z,53.60
2018-07-15T05:53:38.172Z,53.60
2018-07-15T05:58:31.378Z,53.40
2018-07-15T06:03:24.646Z,50.70
2018-07-15T06:08:17.837Z,49.70
2018-07-15T06:13:11.051Z,47.90
2018-07-15T06:18:04.381Z,49.70
2018-07-15T06:22:57.592Z,50.70
2018-07-15T06:27:50.841Z,50.00
2018-07-15T06:32:44.051Z,46.70
2018-07-15T06:37:37.300Z,42.70
2018-07-15T06:47:23.802Z,46.90
2018-07-15T06:52:17.061Z,45.90
2018-07-15T06:57:10.336Z,42.10
2018-07-15T07:02:03.561Z,42.20
2018-07-15T07:06:56.812Z,43.40
2018-07-15T07:11:50.145Z,41.40
2018-07-15T07:16:43.341Z,41.00
2018-07-15T07:21:39.502Z,41.20
2018-07-15T07:26:32.758Z,38.90
2018-07-15T07:31:26.098Z,41.00
2018-07-15T07:36:19.329Z,40.80
2018-07-15T07:41:12.639Z,39.40
2018-07-15T07:46:05.945Z,37.10
2018-07-15T07:50:59.148Z,34.80
2018-07-15T07:55:52.359Z,34.80
2018-07-15T08:05:38.732Z,32.60
2018-07-15T08:10:32.036Z,32.30
2018-07-15T08:15:25.269Z,30.30
2018-07-15T08:20:18.601Z,30.70
2018-07-15T08:25:11.873Z,31.40
2018-07-15T08:30:22.255Z,31.00
2018-07-15T08:35:15.468Z,30.20
2018-07-15T08:45:01.850Z,31.90
2018-07-15T08:49:55.051Z,31.40
2018-07-15T08:54:48.339Z,29.50
2018-07-15T08:59:41.554Z,28.00
2018-07-15T09:04:34.817Z,27.90
2018-07-15T09:09:28.023Z,28.40
2018-07-15T09:14:21.264Z,27.50
2018-07-15T09:19:14.493Z,26.20
2018-07-15T09:24:07.794Z,26.20
2018-07-15T09:33:54.187Z,29.40
2018-07-15T09:38:47.881Z,28.80
2018-07-15T09:43:42.193Z,28.80
2018-07-15T09:48:36.340Z,28.50
2018-07-15T09:53:29.591Z,28.40
2018-07-15T10:03:16.031Z,28.90
2018-07-15T10:08:09.291Z,28.70
2018-07-15T10:13:02.549Z,28.70
2018-07-15T10:17:55.822Z,29.00
2018-07-15T10:22:49.135Z,30.00
2018-07-15T10:27:42.381Z,32.20
2018-07-15T10:32:35.608Z,33.30
2018-07-15T10:37:28.865Z,34.50
2018-07-15T10:47:22.979Z,34.90
2018-07-15T10:52:20.552Z,36.40
2018-07-15T10:57:17.937Z,35.30
2018-07-15T11:07:12.576Z,35.90
2018-07-15T11:12:11.033Z,36.80
2018-07-15T11:17:08.551Z,37.90
2018-07-15T11:27:02.362Z,36.90
2018-07-15T11:32:00.041Z,37.70
2018-07-15T11:36:57.175Z,38.90
2018-07-15T11:41:54.380Z,38.00
2018-07-15T11:51:48.526Z,36.90
2018-07-15T11:56:45.324Z,35.70
2018-07-15T12:01:44.207Z,35.20
2018-07-15T12:06:37.534Z,33.70
2018-07-15T12:11:38.830Z,34.40
2018-07-15T12:16:41.256Z,34.60
2018-07-15T12:21:38.832Z,34.50
2018-07-15T12:26:36.260Z,34.50
2018-07-15T12:31:34.486Z,34.00
2018-07-15T12:36:27.761Z,33.10
2018-07-15T12:41:21.426Z,33.40
2018-07-15T12:46:20.159Z,34.10
2018-07-15T12:51:14.898Z,34.60
2018-07-15T12:56:12.595Z,33.20
2018-07-15T13:05:59.029Z,33.20
2018-07-15T13:10:52.265Z,32.30
2018-07-15T13:15:45.521Z,32.40
2018-07-15T13:20:38.800Z,33.00
2018-07-15T13:25:32.011Z,32.90
2018-07-15T13:30:25.384Z,33.10
2018-07-15T13:35:18.653Z,35.50
2018-07-15T13:40:11.888Z,35.60
2018-07-15T13:45:05.205Z,34.70
2018-07-15T13:49:58.456Z,33.90
2018-07-15T13:54:51.800Z,34.20
2018-07-15T14:04:38.195Z,33.70
2018-07-15T14:09:31.382Z,33.20
2018-07-15T14:14:24.592Z,32.90
2018-07-15T14:19:17.799Z,32.10
2018-07-15T14:24:11.014Z,32.10
2018-07-15T14:29:04.365Z,32.10
2018-07-15T14:33:57.580Z,33.00
2018-07-15T14:38:50.824Z,32.90
2018-07-15T14:43:44.043Z,33.10
2018-07-15T14:53:30.464Z,32.40
2018-07-15T14:58:23.717Z,32.50
2018-07-15T15:03:16.943Z,32.90
2018-07-15T15:08:10.173Z,32.70
2018-07-15T15:17:56.554Z,32.40
2018-07-15T15:27:42.933Z,32.80
2018-07-15T15:32:36.405Z,32.50
2018-07-15T15:37:29.647Z,32.50
2018-07-15T15:47:16.012Z,32.40
2018-07-15T15:52:09.232Z,31.30
2018-07-15T15:57:02.648Z,32.30
2018-07-15T16:06:49.069Z,32.40
2018-07-15T16:11:43.043Z,32.50
2018-07-15T16:16:36.313Z,32.60
2018-07-15T16:21:29.607Z,32.60
2018-07-15T16:26:22.823Z,32.10
2018-07-15T16:31:16.042Z,32.10
2018-07-15T16:36:09.276Z,32.00
2018-07-15T16:41:02.585Z,32.00
2018-07-15T16:45:55.849Z,31.80
2018-07-15T16:50:49.101Z,31.80
2018-07-15T16:55:42.397Z,32.10
2018-07-15T17:00:35.605Z,32.20
2018-07-15T17:05:28.824Z,32.50
2018-07-15T17:10:22.093Z,32.20
2018-07-15T17:15:16.331Z,33.20
2018-07-15T17:20:09.735Z,33.50
2018-07-15T17:25:02.953Z,33.80
2018-07-15T17:29:56.212Z,33.50
2018-07-15T17:39:42.601Z,33.90
2018-07-15T17:44:35.823Z,34.30
2018-07-15T17:54:22.181Z,34.80
2018-07-15T17:59:15.419Z,34.80
2018-07-15T18:04:08.682Z,34.70
2018-07-15T18:09:02.095Z,34.90
2018-07-15T18:13:56.231Z,34.90
2018-07-15T18:18:49.457Z,35.30
2018-07-15T18:23:42.707Z,35.90
2018-07-15T18:28:35.931Z,36.50
2018-07-15T18:33:29.259Z,35.80
2018-07-15T18:38:22.392Z,35.80
2018-07-15T18:43:15.717Z,36.70
2018-07-15T18:48:08.921Z,36.50
2018-07-15T18:57:55.669Z,36.50
2018-07-15T19:02:48.939Z,37.50
2018-07-15T19:07:42.182Z,37.00
2018-07-15T19:12:35.465Z,36.80
2018-07-15T19:17:28.683Z,37.30
2018-07-15T19:22:21.950Z,37.60
2018-07-15T19:27:15.426Z,37.60
2018-07-15T19:41:55.192Z,39.00
2018-07-15T19:46:48.439Z,39.30
2018-07-15T19:51:41.654Z,39.50
2018-07-15T19:56:34.864Z,40.40
2018-07-15T20:06:21.309Z,40.70
2018-07-15T20:16:07.740Z,41.20
2018-07-15T20:21:01.084Z,41.50
2018-07-15T20:25:54.283Z,41.80
2018-07-15T20:30:47.548Z,42.10
2018-07-15T20:35:40.759Z,42.60
2018-07-15T20:45:27.682Z,43.30
2018-07-15T20:50:20.972Z,43.70
2018-07-15T20:55:14.273Z,44.20
2018-07-15T21:00:07.560Z,44.70
2018-07-15T21:05:00.778Z,45.10
2018-07-15T21:09:54.012Z,45.60
2018-07-15T21:14:47.263Z,46.00
2018-07-15T21:29:26.830Z,47.40
2018-07-15T21:34:20.062Z,47.90
2018-07-15T21:44:06.623Z,48.70
2018-07-15T21:48:59.801Z,49.00
2018-07-15T21:53:55.286Z,49.70
2018-07-15T21:58:48.546Z,50.30
2018-07-15T22:03:41.803Z,50.50
2018-07-15T22:09:55.217Z,51.00
2018-07-15T22:19:41.706Z,52.40
2018-07-15T22:24:35.029Z,52.70
2018-07-15T22:29:28.233Z,53.20
2018-07-15T22:34:21.510Z,53.40
2018-07-15T22:39:14.753Z,53.60
2018-07-15T22:44:07.989Z,54.10
2018-07-15T22:49:01.191Z,55.50
2018-07-15T22:53:54.395Z,55.50
2018-07-15T22:58:47.707Z,56.00
2018-07-15T23:03:40.932Z,56.70
2018-07-15T23:13:27.301Z,57.80
2018-07-15T23:18:21.759Z,57.90
2018-07-15T23:23:15.381Z,58.40
2018-07-15T23:28:09.485Z,58.90
2018-07-15T23:33:03.148Z,59.60
2018-07-15T23:42:50.913Z,60.80
2018-07-15T23:52:37.255Z,62.30
2018-07-15T23:57:30.951Z,62.00
